sensor_id;sensor_type;location;lat;lon;timestamp;pressure;altitude;pressure_sealevel;temperature;humidity
62592;BME280;48659;41.622;2.276;2023-04-26T00:01:01;99817.48;;;14.11;57.87
62592;BME280;48659;41.622;2.276;2023-04-26T00:03:30;99820.33;;;14.08;58.44
62592;BME280;48659;41.622;2.276;2023-04-26T00:05:59;99825.68;;;12.31;63.69
62592;BME280;48659;41.622;2.276;2023-04-26T00:08:27;99828.28;;;13.85;61.12
62592;BME280;48659;41.622;2.276;2023-04-26T00:10:56;99819.87;;;13.53;60.98
62592;BME280;48659;41.622;2.276;2023-04-26T00:13:24;99810.05;;;12.86;62.47
62592;BME280;48659;41.622;2.276;2023-04-26T00:15:52;99809.80;;;12.33;63.29
62592;BME280;48659;41.622;2.276;2023-04-26T00:18:20;99811.66;;;12.36;63.37
62592;BME280;48659;41.622;2.276;2023-04-26T00:20:48;99811.68;;;14.22;58.43
62592;BME280;48659;41.622;2.276;2023-04-26T00:23:16;99811.59;;;12.29;63.24
62592;BME280;48659;41.622;2.276;2023-04-26T00:25:44;99819.16;;;11.36;68.16
62592;BME280;48659;41.622;2.276;2023-04-26T00:28:12;99813.40;;;11.96;66.55
62592;BME280;48659;41.622;2.276;2023-04-26T00:30:41;99803.35;;;12.58;64.28
62592;BME280;48659;41.622;2.276;2023-04-26T00:33:08;99800.70;;;12.51;63.87
62592;BME280;48659;41.622;2.276;2023-04-26T00:35:38;99802.55;;;13.11;60.97
62592;BME280;48659;41.622;2.276;2023-04-26T00:38:06;99803.97;;;13.15;60.63
62592;BME280;48659;41.622;2.276;2023-04-26T00:40:34;99801.16;;;11.38;66.92
62592;BME280;48659;41.622;2.276;2023-04-26T00:43:03;99795.28;;;11.95;65.22
62592;BME280;48659;41.622;2.276;2023-04-26T00:45:32;99803.18;;;11.19;67.33
62592;BME280;48659;41.622;2.276;2023-04-26T00:48:01;99806.55;;;12.93;63.75
62592;BME280;48659;41.622;2.276;2023-04-26T00:50:31;99800.24;;;12.75;63.44
62592;BME280;48659;41.622;2.276;2023-04-26T00:53:01;99797.22;;;13.31;60.97
62592;BME280;48659;41.622;2.276;2023-04-26T00:55:31;99797.23;;;12.96;60.43
62592;BME280;48659;41.622;2.276;2023-04-26T00:57:58;99800.31;;;13.69;59.37
62592;BME280;48659;41.622;2.276;2023-04-26T01:00:26;99798.47;;;11.47;64.95
62592;BME280;48659;41.622;2.276;2023-04-26T01:02:54;99793.27;;;12.75;62.06
62592;BME280;48659;41.622;2.276;2023-04-26T01:05:22;99795.62;;;13.18;60.50
62592;BME280;48659;41.622;2.276;2023-04-26T01:07:50;99797.52;;;13.24;60.57
62592;BME280;48659;41.622;2.276;2023-04-26T01:10:18;99798.26;;;12.62;61.96
62592;BME280;48659;41.622;2.276;2023-04-26T01:12:46;99803.22;;;11.73;63.88
62592;BME280;48659;41.622;2.276;2023-04-26T01:15:13;99799.65;;;13.20;62.02
62592;BME280;48659;41.622;2.276;2023-04-26T01:17:45;99798.07;;;13.13;60.45
62592;BME280;48659;41.622;2.276;2023-04-26T01:20:13;99790.45;;;14.51;56.93
62592;BME280;48659;41.622;2.276;2023-04-26T01:22:41;99790.96;;;15.33;54.00
62592;BME280;48659;41.622;2.276;2023-04-26T01:25:11;99803.28;;;13.91;58.60
62592;BME280;48659;41.622;2.276;2023-04-26T01:27:39;99795.33;;;14.27;56.62
62592;BME280;48659;41.622;2.276;2023-04-26T01:30:09;99801.87;;;13.25;60.59
62592;BME280;48659;41.622;2.276;2023-04-26T01:32:48;99802.50;;;13.49;58.57
62592;BME280;48659;41.622;2.276;2023-04-26T01:35:18;99802.74;;;12.31;63.24
62592;BME280;48659;41.622;2.276;2023-04-26T01:37:46;99794.99;;;12.43;65.87
62592;BME280;48659;41.622;2.276;2023-04-26T01:40:14;99785.16;;;12.49;64.66
62592;BME280;48659;41.622;2.276;2023-04-26T01:42:41;99778.86;;;14.52;58.92
62592;BME280;48659;41.622;2.276;2023-04-26T01:45:10;99777.50;;;12.64;63.25
62592;BME280;48659;41.622;2.276;2023-04-26T01:47:39;99777.21;;;13.26;60.90
62592;BME280;48659;41.622;2.276;2023-04-26T01:50:08;99771.08;;;13.74;59.26
62592;BME280;48659;41.622;2.276;2023-04-26T01:52:36;99757.97;;;15.04;55.30
62592;BME280;48659;41.622;2.276;2023-04-26T01:55:05;99751.53;;;15.68;53.19
62592;BME280;48659;41.622;2.276;2023-04-26T01:57:34;99749.97;;;16.53;51.27
62592;BME280;48659;41.622;2.276;2023-04-26T02:00:04;99746.84;;;16.80;50.24
62592;BME280;48659;41.622;2.276;2023-04-26T02:06:34;99754.65;;;16.69;49.82
62592;BME280;48659;41.622;2.276;2023-04-26T02:09:02;99754.13;;;16.41;50.45
62592;BME280;48659;41.622;2.276;2023-04-26T02:11:30;99752.64;;;15.90;52.77
62592;BME280;48659;41.622;2.276;2023-04-26T02:13:57;99754.31;;;16.50;51.06
62592;BME280;48659;41.622;2.276;2023-04-26T02:16:24;99757.10;;;16.68;51.77
62592;BME280;48659;41.622;2.276;2023-04-26T02:18:52;99755.88;;;14.87;55.07
62592;BME280;48659;41.622;2.276;2023-04-26T02:21:20;99752.48;;;14.97;55.78
62592;BME280;48659;41.622;2.276;2023-04-26T02:23:48;99754.91;;;15.14;54.71
62592;BME280;48659;41.622;2.276;2023-04-26T02:26:15;99759.51;;;14.90;55.27
62592;BME280;48659;41.622;2.276;2023-04-26T02:28:42;99760.13;;;14.77;55.99
62592;BME280;48659;41.622;2.276;2023-04-26T02:31:09;99763.97;;;13.77;59.34
62592;BME280;48659;41.622;2.276;2023-04-26T02:33:37;99767.25;;;13.55;60.15
62592;BME280;48659;41.622;2.276;2023-04-26T02:36:05;99763.51;;;13.81;59.24
62592;BME280;48659;41.622;2.276;2023-04-26T02:38:34;99757.14;;;14.62;56.70
62592;BME280;48659;41.622;2.276;2023-04-26T02:41:02;99753.89;;;14.46;57.29
62592;BME280;48659;41.622;2.276;2023-04-26T02:43:30;99761.33;;;13.83;58.31
62592;BME280;48659;41.622;2.276;2023-04-26T02:45:58;99763.63;;;13.70;59.23
62592;BME280;48659;41.622;2.276;2023-04-26T02:48:25;99768.64;;;12.13;63.71
62592;BME280;48659;41.622;2.276;2023-04-26T02:50:53;99776.56;;;11.36;67.57
62592;BME280;48659;41.622;2.276;2023-04-26T02:53:21;99775.52;;;11.74;68.05
62592;BME280;48659;41.622;2.276;2023-04-26T02:55:48;99767.95;;;11.93;65.33
62592;BME280;48659;41.622;2.276;2023-04-26T02:58:16;99762.51;;;13.72;61.81
62592;BME280;48659;41.622;2.276;2023-04-26T03:00:45;99758.80;;;13.90;59.63
62592;BME280;48659;41.622;2.276;2023-04-26T03:03:13;99754.30;;;14.43;59.03
62592;BME280;48659;41.622;2.276;2023-04-26T03:05:41;99746.16;;;14.37;58.19
62592;BME280;48659;41.622;2.276;2023-04-26T03:08:08;99740.30;;;14.89;56.62
62592;BME280;48659;41.622;2.276;2023-04-26T03:10:35;99737.08;;;15.32;54.40
62592;BME280;48659;41.622;2.276;2023-04-26T03:13:03;99740.12;;;15.76;52.85
62592;BME280;48659;41.622;2.276;2023-04-26T03:15:32;99736.99;;;15.87;52.30
62592;BME280;48659;41.622;2.276;2023-04-26T03:18:00;99733.70;;;15.86;52.06
62592;BME280;48659;41.622;2.276;2023-04-26T03:20:26;99733.45;;;16.58;51.43
62592;BME280;48659;41.622;2.276;2023-04-26T03:22:53;99733.48;;;16.65;50.59
62592;BME280;48659;41.622;2.276;2023-04-26T03:25:20;99734.99;;;16.01;52.16
62592;BME280;48659;41.622;2.276;2023-04-26T03:27:48;99728.98;;;16.29;51.01
62592;BME280;48659;41.622;2.276;2023-04-26T03:30:15;99733.92;;;16.43;51.19
62592;BME280;48659;41.622;2.276;2023-04-26T03:32:43;99729.85;;;16.78;51.09
62592;BME280;48659;41.622;2.276;2023-04-26T03:35:11;99723.35;;;16.67;50.63
62592;BME280;48659;41.622;2.276;2023-04-26T03:37:40;99722.14;;;16.26;51.10
62592;BME280;48659;41.622;2.276;2023-04-26T03:40:08;99721.29;;;16.86;49.86
62592;BME280;48659;41.622;2.276;2023-04-26T03:42:39;99728.05;;;15.38;53.84
62592;BME280;48659;41.622;2.276;2023-04-26T03:45:07;99736.87;;;13.80;57.76
62592;BME280;48659;41.622;2.276;2023-04-26T03:47:35;99730.61;;;14.35;56.75
62592;BME280;48659;41.622;2.276;2023-04-26T03:50:03;99729.47;;;14.25;56.23
62592;BME280;48659;41.622;2.276;2023-04-26T03:52:46;99725.13;;;14.17;57.15
62592;BME280;48659;41.622;2.276;2023-04-26T03:55:14;99728.82;;;13.22;58.92
62592;BME280;48659;41.622;2.276;2023-04-26T03:57:42;99726.73;;;13.09;58.45
62592;BME280;48659;41.622;2.276;2023-04-26T04:00:10;99712.86;;;14.22;57.93
62592;BME280;48659;41.622;2.276;2023-04-26T04:02:37;99716.79;;;15.32;55.34
62592;BME280;48659;41.622;2.276;2023-04-26T04:05:05;99719.20;;;14.97;55.05
62592;BME280;48659;41.622;2.276;2023-04-26T04:07:33;99719.34;;;15.49;53.58
62592;BME280;48659;41.622;2.276;2023-04-26T04:10:01;99715.85;;;15.92;52.72
62592;BME280;48659;41.622;2.276;2023-04-26T04:12:28;99716.04;;;16.41;51.22
62592;BME280;48659;41.622;2.276;2023-04-26T04:14:55;99717.92;;;16.53;50.38
62592;BME280;48659;41.622;2.276;2023-04-26T04:17:22;99718.99;;;16.62;49.97
62592;BME280;48659;41.622;2.276;2023-04-26T04:19:49;99725.88;;;15.28;51.99
62592;BME280;48659;41.622;2.276;2023-04-26T04:22:16;99723.51;;;17.13;49.20
62592;BME280;48659;41.622;2.276;2023-04-26T04:24:56;99724.34;;;17.43;48.04
62592;BME280;48659;41.622;2.276;2023-04-26T04:27:23;99727.93;;;17.30;47.63
62592;BME280;48659;41.622;2.276;2023-04-26T04:29:50;99727.72;;;16.93;47.68
62592;BME280;48659;41.622;2.276;2023-04-26T04:32:17;99727.05;;;16.85;47.84
62592;BME280;48659;41.622;2.276;2023-04-26T04:34:44;99724.23;;;17.32;47.52
62592;BME280;48659;41.622;2.276;2023-04-26T04:37:12;99726.33;;;17.29;47.54
62592;BME280;48659;41.622;2.276;2023-04-26T04:39:39;99733.09;;;17.56;47.09
62592;BME280;48659;41.622;2.276;2023-04-26T04:42:05;99732.26;;;17.51;47.61
62592;BME280;48659;41.622;2.276;2023-04-26T04:44:33;99734.70;;;16.78;48.27
62592;BME280;48659;41.622;2.276;2023-04-26T04:47:00;99734.58;;;17.07;48.31
62592;BME280;48659;41.622;2.276;2023-04-26T04:49:27;99740.21;;;16.97;48.59
62592;BME280;48659;41.622;2.276;2023-04-26T04:51:54;99745.07;;;17.30;48.60
62592;BME280;48659;41.622;2.276;2023-04-26T04:54:21;99749.42;;;17.18;48.33
62592;BME280;48659;41.622;2.276;2023-04-26T04:56:49;99747.99;;;16.93;48.83
62592;BME280;48659;41.622;2.276;2023-04-26T04:59:17;99746.55;;;17.11;48.45
62592;BME280;48659;41.622;2.276;2023-04-26T05:01:45;99749.43;;;16.87;48.86
62592;BME280;48659;41.622;2.276;2023-04-26T05:04:12;99755.11;;;17.08;48.15
62592;BME280;48659;41.622;2.276;2023-04-26T05:06:39;99759.48;;;17.13;48.31
62592;BME280;48659;41.622;2.276;2023-04-26T05:09:07;99761.45;;;16.88;48.73
62592;BME280;48659;41.622;2.276;2023-04-26T05:11:34;99765.67;;;17.16;48.71
62592;BME280;48659;41.622;2.276;2023-04-26T05:14:02;99772.30;;;17.75;47.70
62592;BME280;48659;41.622;2.276;2023-04-26T05:16:29;99774.63;;;17.29;47.90
62592;BME280;48659;41.622;2.276;2023-04-26T05:18:56;99785.87;;;17.65;47.09
62592;BME280;48659;41.622;2.276;2023-04-26T05:21:23;99786.58;;;17.21;47.42
62592;BME280;48659;41.622;2.276;2023-04-26T05:23:50;99792.73;;;17.47;47.39
62592;BME280;48659;41.622;2.276;2023-04-26T05:26:18;99793.33;;;17.11;47.52
62592;BME280;48659;41.622;2.276;2023-04-26T05:28:46;99794.78;;;17.24;48.01
62592;BME280;48659;41.622;2.276;2023-04-26T05:31:12;99797.10;;;17.35;47.39
62592;BME280;48659;41.622;2.276;2023-04-26T05:33:39;99804.00;;;17.64;47.29
62592;BME280;48659;41.622;2.276;2023-04-26T05:36:07;99807.76;;;17.60;46.88
62592;BME280;48659;41.622;2.276;2023-04-26T05:38:34;99811.45;;;17.66;46.79
62592;BME280;48659;41.622;2.276;2023-04-26T05:41:02;99808.16;;;17.53;47.34
62592;BME280;48659;41.622;2.276;2023-04-26T05:43:29;99809.24;;;17.29;48.05
62592;BME280;48659;41.622;2.276;2023-04-26T05:45:57;99810.33;;;17.09;48.24
62592;BME280;48659;41.622;2.276;2023-04-26T05:48:25;99814.26;;;17.90;47.50
62592;BME280;48659;41.622;2.276;2023-04-26T05:50:52;99817.13;;;18.43;46.60
62592;BME280;48659;41.622;2.276;2023-04-26T05:53:20;99816.44;;;18.77;45.20
62592;BME280;48659;41.622;2.276;2023-04-26T05:55:48;99822.29;;;18.90;44.74
62592;BME280;48659;41.622;2.276;2023-04-26T05:58:15;99828.96;;;18.98;44.24
62592;BME280;48659;41.622;2.276;2023-04-26T06:00:43;99828.92;;;19.19;43.92
62592;BME280;48659;41.622;2.276;2023-04-26T06:03:11;99827.64;;;19.30;43.89
62592;BME280;48659;41.622;2.276;2023-04-26T06:05:39;99829.39;;;19.35;43.86
62592;BME280;48659;41.622;2.276;2023-04-26T06:08:06;99827.35;;;19.54;43.63
62592;BME280;48659;41.622;2.276;2023-04-26T06:10:35;99827.69;;;19.30;43.38
62592;BME280;48659;41.622;2.276;2023-04-26T06:13:02;99831.29;;;19.36;43.25
62592;BME280;48659;41.622;2.276;2023-04-26T06:15:30;99835.69;;;18.93;43.87
62592;BME280;48659;41.622;2.276;2023-04-26T06:17:57;99837.25;;;19.05;43.87
62592;BME280;48659;41.622;2.276;2023-04-26T06:20:25;99838.68;;;19.11;43.64
62592;BME280;48659;41.622;2.276;2023-04-26T06:22:52;99837.92;;;19.06;43.72
62592;BME280;48659;41.622;2.276;2023-04-26T06:25:20;99827.78;;;19.46;43.08
62592;BME280;48659;41.622;2.276;2023-04-26T06:27:47;99831.43;;;19.23;43.25
62592;BME280;48659;41.622;2.276;2023-04-26T06:30:14;99837.04;;;17.64;46.07
62592;BME280;48659;41.622;2.276;2023-04-26T06:32:42;99839.00;;;18.40;45.09
62592;BME280;48659;41.622;2.276;2023-04-26T06:35:10;99833.01;;;19.37;43.34
62592;BME280;48659;41.622;2.276;2023-04-26T06:37:37;99837.45;;;19.85;42.26
62592;BME280;48659;41.622;2.276;2023-04-26T06:40:06;99836.24;;;19.79;42.48
62592;BME280;48659;41.622;2.276;2023-04-26T06:42:33;99835.10;;;19.83;41.94
62592;BME280;48659;41.622;2.276;2023-04-26T06:45:01;99835.68;;;19.84;42.14
62592;BME280;48659;41.622;2.276;2023-04-26T06:47:28;99842.16;;;19.19;43.66
62592;BME280;48659;41.622;2.276;2023-04-26T06:49:55;99845.62;;;18.17;44.80
62592;BME280;48659;41.622;2.276;2023-04-26T06:52:22;99841.81;;;18.43;45.75
62592;BME280;48659;41.622;2.276;2023-04-26T06:54:50;99840.69;;;19.03;44.55
62592;BME280;48659;41.622;2.276;2023-04-26T06:57:18;99842.39;;;19.08;44.34
62592;BME280;48659;41.622;2.276;2023-04-26T06:59:46;99841.44;;;19.24;43.91
62592;BME280;48659;41.622;2.276;2023-04-26T07:02:14;99836.40;;;19.34;43.52
62592;BME280;48659;41.622;2.276;2023-04-26T07:04:41;99836.47;;;20.02;42.02
62592;BME280;48659;41.622;2.276;2023-04-26T07:07:08;99834.21;;;19.95;41.59
62592;BME280;48659;41.622;2.276;2023-04-26T07:09:35;99830.73;;;20.29;41.10
62592;BME280;48659;41.622;2.276;2023-04-26T07:12:02;99827.99;;;19.83;41.67
62592;BME280;48659;41.622;2.276;2023-04-26T07:14:31;99829.74;;;19.53;42.98
62592;BME280;48659;41.622;2.276;2023-04-26T07:16:59;99834.76;;;19.34;42.80
62592;BME280;48659;41.622;2.276;2023-04-26T07:19:27;99837.40;;;20.39;41.72
62592;BME280;48659;41.622;2.276;2023-04-26T07:21:54;99838.74;;;19.28;43.18
62592;BME280;48659;41.622;2.276;2023-04-26T07:24:22;99843.03;;;18.49;44.35
62592;BME280;48659;41.622;2.276;2023-04-26T07:26:49;99836.07;;;19.87;42.45
62592;BME280;48659;41.622;2.276;2023-04-26T07:29:17;99839.79;;;19.36;43.59
62592;BME280;48659;41.622;2.276;2023-04-26T07:31:45;99844.78;;;18.44;44.71
62592;BME280;48659;41.622;2.276;2023-04-26T07:34:13;99837.57;;;20.01;42.74
62592;BME280;48659;41.622;2.276;2023-04-26T07:36:41;99841.25;;;20.58;41.49
62592;BME280;48659;41.622;2.276;2023-04-26T07:39:08;99844.13;;;20.92;40.94
62592;BME280;48659;41.622;2.276;2023-04-26T07:41:35;99839.99;;;21.04;39.99
62592;BME280;48659;41.622;2.276;2023-04-26T07:44:03;99838.13;;;21.21;39.97
62592;BME280;48659;41.622;2.276;2023-04-26T07:46:32;99840.01;;;20.17;42.28
62592;BME280;48659;41.622;2.276;2023-04-26T07:49:01;99840.13;;;19.83;42.21
62592;BME280;48659;41.622;2.276;2023-04-26T07:51:28;99845.12;;;19.78;42.96
62592;BME280;48659;41.622;2.276;2023-04-26T07:53:56;99844.68;;;18.47;45.33
62592;BME280;48659;41.622;2.276;2023-04-26T07:56:23;99841.89;;;20.37;42.25
62592;BME280;48659;41.622;2.276;2023-04-26T07:58:51;99841.80;;;20.47;41.72
62592;BME280;48659;41.622;2.276;2023-04-26T08:01:18;99840.38;;;19.60;43.12
62592;BME280;48659;41.622;2.276;2023-04-26T08:03:45;99841.85;;;20.72;41.30
62592;BME280;48659;41.622;2.276;2023-04-26T08:06:13;99840.73;;;21.10;40.39
62592;BME280;48659;41.622;2.276;2023-04-26T08:08:41;99841.04;;;21.19;40.58
62592;BME280;48659;41.622;2.276;2023-04-26T08:11:09;99847.52;;;20.75;41.17
62592;BME280;48659;41.622;2.276;2023-04-26T08:13:36;99854.11;;;17.39;47.95
62592;BME280;48659;41.622;2.276;2023-04-26T08:16:05;99858.92;;;18.16;46.93
62592;BME280;48659;41.622;2.276;2023-04-26T08:18:32;99855.04;;;19.49;44.98
62592;BME280;48659;41.622;2.276;2023-04-26T08:21:00;99849.13;;;19.95;43.26
62592;BME280;48659;41.622;2.276;2023-04-26T08:23:32;99846.49;;;18.99;44.36
62592;BME280;48659;41.622;2.276;2023-04-26T08:25:59;99848.58;;;19.35;44.21
62592;BME280;48659;41.622;2.276;2023-04-26T08:28:26;99854.10;;;19.76;44.09
62592;BME280;48659;41.622;2.276;2023-04-26T08:30:54;99852.47;;;20.21;43.41
62592;BME280;48659;41.622;2.276;2023-04-26T08:33:22;99850.15;;;19.91;43.10
62592;BME280;48659;41.622;2.276;2023-04-26T08:35:49;99852.00;;;21.13;40.82
62592;BME280;48659;41.622;2.276;2023-04-26T08:38:16;99855.81;;;18.95;44.80
62592;BME280;48659;41.622;2.276;2023-04-26T08:40:46;99863.48;;;17.99;47.45
62592;BME280;48659;41.622;2.276;2023-04-26T08:43:14;99858.77;;;20.49;42.84
62592;BME280;48659;41.622;2.276;2023-04-26T08:45:44;99861.58;;;19.84;43.57
62592;BME280;48659;41.622;2.276;2023-04-26T08:48:12;99862.54;;;20.27;43.21
62592;BME280;48659;41.622;2.276;2023-04-26T08:50:42;99871.88;;;18.61;45.93
62592;BME280;48659;41.622;2.276;2023-04-26T08:53:13;99871.65;;;20.55;42.48
62592;BME280;48659;41.622;2.276;2023-04-26T08:55:45;99873.97;;;18.28;46.38
62592;BME280;48659;41.622;2.276;2023-04-26T08:58:14;99872.19;;;18.58;46.51
62592;BME280;48659;41.622;2.276;2023-04-26T09:00:43;99869.18;;;20.15;43.86
62592;BME280;48659;41.622;2.276;2023-04-26T09:03:10;99866.47;;;20.66;42.45
62592;BME280;48659;41.622;2.276;2023-04-26T09:05:39;99862.88;;;21.19;41.46
62592;BME280;48659;41.622;2.276;2023-04-26T09:08:08;99867.67;;;19.77;43.83
62592;BME280;48659;41.622;2.276;2023-04-26T09:10:36;99868.94;;;20.69;41.68
62592;BME280;48659;41.622;2.276;2023-04-26T09:13:04;99863.96;;;21.42;40.63
62592;BME280;48659;41.622;2.276;2023-04-26T09:15:32;99866.25;;;21.31;40.69
62592;BME280;48659;41.622;2.276;2023-04-26T09:18:15;99865.56;;;21.85;39.80
62592;BME280;48659;41.622;2.276;2023-04-26T09:20:44;99867.50;;;21.92;40.07
62592;BME280;48659;41.622;2.276;2023-04-26T09:23:12;99868.27;;;21.83;39.55
62592;BME280;48659;41.622;2.276;2023-04-26T09:25:39;99866.45;;;21.08;40.99
62592;BME280;48659;41.622;2.276;2023-04-26T09:28:19;99863.74;;;21.66;39.90
62592;BME280;48659;41.622;2.276;2023-04-26T09:30:46;99862.96;;;20.34;42.52
62592;BME280;48659;41.622;2.276;2023-04-26T09:33:14;99866.77;;;19.43;44.53
62592;BME280;48659;41.622;2.276;2023-04-26T09:35:42;99873.22;;;20.57;42.87
62592;BME280;48659;41.622;2.276;2023-04-26T09:38:11;99876.73;;;20.31;42.71
62592;BME280;48659;41.622;2.276;2023-04-26T09:40:40;99876.96;;;20.62;42.26
62592;BME280;48659;41.622;2.276;2023-04-26T09:43:09;99875.18;;;21.72;40.61
62592;BME280;48659;41.622;2.276;2023-04-26T09:45:45;99874.38;;;21.76;40.36
62592;BME280;48659;41.622;2.276;2023-04-26T09:48:14;99880.80;;;22.95;39.21
62592;BME280;48659;41.622;2.276;2023-04-26T09:50:44;99882.36;;;21.53;41.84
62592;BME280;48659;41.622;2.276;2023-04-26T09:53:11;99887.94;;;21.20;42.52
62592;BME280;48659;41.622;2.276;2023-04-26T09:55:50;99883.59;;;21.72;42.75
62592;BME280;48659;41.622;2.276;2023-04-26T09:58:17;99886.26;;;21.45;43.50
62592;BME280;48659;41.622;2.276;2023-04-26T10:00:45;99886.26;;;22.07;41.70
62592;BME280;48659;41.622;2.276;2023-04-26T10:03:14;99885.36;;;21.80;43.15
62592;BME280;48659;41.622;2.276;2023-04-26T10:05:43;99886.49;;;20.17;45.74
62592;BME280;48659;41.622;2.276;2023-04-26T10:08:12;99884.84;;;20.83;45.93
62592;BME280;48659;41.622;2.276;2023-04-26T10:10:42;99880.01;;;21.17;44.59
62592;BME280;48659;41.622;2.276;2023-04-26T10:13:10;99887.50;;;20.50;45.37
62592;BME280;48659;41.622;2.276;2023-04-26T10:15:39;99890.74;;;20.72;44.81
62592;BME280;48659;41.622;2.276;2023-04-26T10:18:07;99891.02;;;19.71;47.42
62592;BME280;48659;41.622;2.276;2023-04-26T10:20:38;99892.74;;;20.53;45.55
62592;BME280;48659;41.622;2.276;2023-04-26T10:23:11;99888.53;;;21.34;45.02
62592;BME280;48659;41.622;2.276;2023-04-26T10:25:40;99894.13;;;19.21;48.47
62592;BME280;48659;41.622;2.276;2023-04-26T10:28:07;99901.33;;;18.66;50.68
62592;BME280;48659;41.622;2.276;2023-04-26T10:30:53;99896.09;;;21.25;45.86
62592;BME280;48659;41.622;2.276;2023-04-26T10:33:21;99897.45;;;20.32;46.85
62592;BME280;48659;41.622;2.276;2023-04-26T10:36:21;99896.85;;;20.76;45.94
62592;BME280;48659;41.622;2.276;2023-04-26T10:39:18;99890.89;;;19.38;49.69
62592;BME280;48659;41.622;2.276;2023-04-26T10:41:45;99890.26;;;20.42;47.34
62592;BME280;48659;41.622;2.276;2023-04-26T10:44:39;99893.41;;;20.92;46.88
62592;BME280;48659;41.622;2.276;2023-04-26T10:47:20;99886.95;;;20.03;48.20
62592;BME280;48659;41.622;2.276;2023-04-26T10:49:48;99886.24;;;20.26;48.93
62592;BME280;48659;41.622;2.276;2023-04-26T10:52:16;99886.16;;;21.38;46.31
62592;BME280;48659;41.622;2.276;2023-04-26T10:54:49;99884.20;;;20.83;45.91
62592;BME280;48659;41.622;2.276;2023-04-26T10:57:17;99883.11;;;20.67;46.24
62592;BME280;48659;41.622;2.276;2023-04-26T11:00:22;99880.66;;;22.23;43.14
62592;BME280;48659;41.622;2.276;2023-04-26T11:02:55;99874.49;;;22.24;42.69
62592;BME280;48659;41.622;2.276;2023-04-26T11:05:47;99869.46;;;20.82;45.49
62592;BME280;48659;41.622;2.276;2023-04-26T11:08:18;99866.81;;;21.33;45.29
62592;BME280;48659;41.622;2.276;2023-04-26T11:10:50;99866.41;;;20.90;45.94
62592;BME280;48659;41.622;2.276;2023-04-26T11:13:18;99857.81;;;21.58;44.59
62592;BME280;48659;41.622;2.276;2023-04-26T11:15:47;99856.22;;;21.21;44.40
62592;BME280;48659;41.622;2.276;2023-04-26T11:18:19;99857.43;;;20.04;46.68
62592;BME280;48659;41.622;2.276;2023-04-26T11:20:47;99855.57;;;21.27;44.61
62592;BME280;48659;41.622;2.276;2023-04-26T11:23:17;99852.08;;;21.79;43.20
62592;BME280;48659;41.622;2.276;2023-04-26T11:25:44;99848.17;;;22.50;41.66
62592;BME280;48659;41.622;2.276;2023-04-26T11:28:12;99848.93;;;22.36;41.18
62592;BME280;48659;41.622;2.276;2023-04-26T11:30:40;99848.89;;;22.57;41.18
62592;BME280;48659;41.622;2.276;2023-04-26T11:33:15;99847.19;;;22.49;41.32
62592;BME280;48659;41.622;2.276;2023-04-26T11:35:42;99839.07;;;22.08;41.42
62592;BME280;48659;41.622;2.276;2023-04-26T11:38:10;99838.54;;;21.98;41.94
62592;BME280;48659;41.622;2.276;2023-04-26T11:40:37;99833.27;;;21.36;43.74
62592;BME280;48659;41.622;2.276;2023-04-26T11:43:05;99829.39;;;22.07;42.33
62592;BME280;48659;41.622;2.276;2023-04-26T11:45:35;99819.08;;;21.04;43.84
62592;BME280;48659;41.622;2.276;2023-04-26T11:48:05;99816.14;;;20.92;44.84
62592;BME280;48659;41.622;2.276;2023-04-26T11:50:34;99813.84;;;20.08;46.21
62592;BME280;48659;41.622;2.276;2023-04-26T11:53:04;99811.45;;;20.06;46.51
62592;BME280;48659;41.622;2.276;2023-04-26T11:55:32;99803.21;;;20.60;45.63
62592;BME280;48659;41.622;2.276;2023-04-26T11:58:00;99802.47;;;19.66;47.12
62592;BME280;48659;41.622;2.276;2023-04-26T12:00:27;99801.76;;;19.37;48.48
62592;BME280;48659;41.622;2.276;2023-04-26T12:02:55;99793.51;;;19.96;46.83
62592;BME280;48659;41.622;2.276;2023-04-26T12:05:24;99792.64;;;19.58;47.62
62592;BME280;48659;41.622;2.276;2023-04-26T12:07:54;99788.37;;;21.55;43.44
62592;BME280;48659;41.622;2.276;2023-04-26T12:10:24;99789.49;;;21.66;42.39
62592;BME280;48659;41.622;2.276;2023-04-26T12:12:54;99788.91;;;22.50;40.44
62592;BME280;48659;41.622;2.276;2023-04-26T12:15:23;99785.42;;;22.24;40.44
62592;BME280;48659;41.622;2.276;2023-04-26T12:17:53;99771.11;;;23.93;38.18
62592;BME280;48659;41.622;2.276;2023-04-26T12:20:32;99777.68;;;22.81;39.33
62592;BME280;48659;41.622;2.276;2023-04-26T12:23:02;99779.33;;;20.06;44.38
62592;BME280;48659;41.622;2.276;2023-04-26T12:25:32;99780.06;;;20.15;45.23
62592;BME280;48659;41.622;2.276;2023-04-26T12:28:02;99779.03;;;20.31;45.36
62592;BME280;48659;41.622;2.276;2023-04-26T12:30:30;99774.40;;;19.08;48.46
62592;BME280;48659;41.622;2.276;2023-04-26T12:32:57;99778.60;;;20.85;45.29
62592;BME280;48659;41.622;2.276;2023-04-26T12:35:25;99776.42;;;20.64;45.53
62592;BME280;48659;41.622;2.276;2023-04-26T12:37:52;99780.15;;;21.28;43.96
62592;BME280;48659;41.622;2.276;2023-04-26T12:40:19;99783.96;;;22.22;41.80
62592;BME280;48659;41.622;2.276;2023-04-26T12:42:48;99774.33;;;23.49;39.83
62592;BME280;48659;41.622;2.276;2023-04-26T12:45:15;99779.30;;;22.96;40.06
62592;BME280;48659;41.622;2.276;2023-04-26T12:47:43;99784.17;;;23.24;39.91
62592;BME280;48659;41.622;2.276;2023-04-26T12:50:10;99782.79;;;21.88;41.56
62592;BME280;48659;41.622;2.276;2023-04-26T12:52:41;99782.78;;;22.43;41.02
62592;BME280;48659;41.622;2.276;2023-04-26T12:55:09;99786.01;;;21.60;42.29
62592;BME280;48659;41.622;2.276;2023-04-26T12:57:38;99785.89;;;22.59;40.50
62592;BME280;48659;41.622;2.276;2023-04-26T13:00:08;99789.36;;;21.96;42.33
62592;BME280;48659;41.622;2.276;2023-04-26T13:02:37;99791.16;;;22.19;41.15
62592;BME280;48659;41.622;2.276;2023-04-26T13:05:05;99784.39;;;22.83;40.19
62592;BME280;48659;41.622;2.276;2023-04-26T13:07:41;99783.90;;;21.13;42.65
62592;BME280;48659;41.622;2.276;2023-04-26T13:10:10;99784.58;;;21.71;42.29
62592;BME280;48659;41.622;2.276;2023-04-26T13:12:37;99786.31;;;21.07;43.29